createdAt,value
2022-11-01T00:01:24.966Z,14.20
2022-11-01T00:03:51.707Z,14.20
2022-11-01T00:06:18.631Z,14.20
2022-11-01T00:08:45.410Z,14.20
2022-11-01T00:11:14.666Z,14.30
2022-11-01T00:13:41.862Z,14.30
2022-11-01T00:16:08.672Z,14.40
2022-11-01T00:18:35.335Z,14.40
2022-11-01T00:21:02.241Z,14.50
2022-11-01T00:23:28.911Z,14.60
2022-11-01T00:26:00.259Z,14.60
2022-11-01T00:28:28.020Z,14.70
2022-11-01T00:30:56.507Z,14.80
2022-11-01T00:33:24.128Z,14.80
2022-11-01T00:35:51.331Z,14.80
2022-11-01T00:38:18.927Z,14.90
2022-11-01T00:40:45.818Z,14.90
2022-11-01T00:43:12.957Z,14.90
2022-11-01T00:45:39.716Z,14.90
2022-11-01T00:48:06.937Z,15.00
2022-11-01T00:50:33.665Z,15.10
2022-11-01T00:53:00.518Z,15.20
2022-11-01T00:55:27.092Z,15.30
2022-11-01T00:57:54.086Z,15.40
2022-11-01T01:00:20.893Z,15.50
2022-11-01T01:02:47.843Z,15.50
2022-11-01T01:05:14.567Z,15.60
2022-11-01T01:07:41.374Z,15.70
2022-11-01T01:10:09.095Z,15.70
2022-11-01T01:12:35.812Z,15.80
2022-11-01T01:15:02.567Z,15.90
2022-11-01T01:17:32.774Z,15.90
2022-11-01T01:20:00.777Z,15.90
2022-11-01T01:22:28.484Z,16.00
2022-11-01T01:24:55.394Z,16.10
2022-11-01T01:27:22.012Z,16.10
2022-11-01T01:29:49.147Z,16.10
2022-11-01T01:32:20.454Z,16.10
2022-11-01T01:34:47.388Z,16.20
2022-11-01T01:37:17.085Z,16.20
2022-11-01T01:39:44.530Z,16.30
2022-11-01T01:42:26.520Z,16.20
2022-11-01T01:44:56.494Z,16.30
2022-11-01T01:47:34.705Z,16.30
2022-11-01T01:50:12.860Z,16.30
2022-11-01T01:52:46.577Z,16.30
2022-11-01T01:55:16.088Z,16.30
2022-11-01T01:57:43.340Z,16.30
2022-11-01T02:00:11.270Z,16.30
2022-11-01T02:02:40.630Z,16.20
2022-11-01T02:05:27.940Z,16.20
2022-11-01T02:07:56.956Z,16.20
2022-11-01T02:10:24.414Z,16.30
2022-11-01T02:12:51.198Z,16.20
2022-11-01T02:15:21.924Z,16.30
2022-11-01T02:18:04.882Z,16.20
2022-11-01T02:20:44.171Z,16.20
2022-11-01T02:24:00.524Z,16.20
2022-11-01T02:26:43.009Z,16.20
2022-11-01T02:29:12.710Z,16.20
2022-11-01T02:32:13.389Z,16.20
2022-11-01T02:34:59.582Z,16.20
2022-11-01T02:37:26.346Z,16.20
2022-11-01T02:39:57.712Z,16.20
2022-11-01T02:42:32.684Z,16.20
2022-11-01T02:45:06.495Z,16.20
2022-11-01T02:47:34.600Z,16.10
2022-11-01T02:50:06.175Z,16.10
2022-11-01T02:52:39.900Z,16.10
2022-11-01T02:55:35.339Z,16.10
2022-11-01T02:58:06.442Z,16.10
2022-11-01T03:00:35.801Z,16.10
2022-11-01T03:03:05.278Z,16.10
2022-11-01T03:05:45.844Z,16.10
2022-11-01T03:08:19.095Z,16.10
2022-11-01T03:10:52.123Z,16.10
2022-11-01T03:13:36.772Z,16.10
2022-11-01T03:16:36.867Z,16.10
2022-11-01T03:19:23.520Z,16.10
2022-11-01T03:22:03.733Z,16.10
2022-11-01T03:24:38.763Z,16.20
2022-11-01T03:27:17.897Z,16.20
2022-11-01T03:29:58.225Z,16.20
2022-11-01T03:32:30.248Z,16.20
2022-11-01T03:34:59.976Z,16.30
2022-11-01T03:37:28.954Z,16.30
2022-11-01T03:39:57.793Z,16.30
2022-11-01T03:42:25.020Z,16.40
2022-11-01T03:44:59.862Z,16.40
2022-11-01T03:47:26.823Z,16.40
2022-11-01T03:50:12.025Z,16.40
2022-11-01T03:52:38.858Z,16.40
2022-11-01T03:55:18.040Z,16.50
2022-11-01T03:57:46.879Z,16.50
2022-11-01T04:00:17.930Z,16.50
2022-11-01T04:02:45.279Z,16.60
2022-11-01T04:05:12.429Z,16.60
2022-11-01T04:07:40.013Z,16.70
2022-11-01T04:10:07.277Z,16.70
2022-11-01T04:12:34.389Z,16.80
2022-11-01T04:15:20.092Z,16.80
2022-11-01T04:18:05.947Z,16.80
2022-11-01T04:20:33.620Z,16.90
2022-11-01T04:23:01.271Z,17.00
2022-11-01T04:25:28.378Z,17.00
2022-11-01T04:27:58.934Z,17.10
2022-11-01T04:30:27.736Z,17.10
2022-11-01T04:32:55.264Z,17.20
2022-11-01T04:35:22.546Z,17.10
2022-11-01T04:37:57.388Z,17.20
2022-11-01T04:40:25.255Z,17.30
2022-11-01T04:42:55.299Z,17.30
2022-11-01T04:45:21.983Z,17.40
2022-11-01T04:47:52.454Z,17.40
2022-11-01T04:50:20.451Z,17.40
2022-11-01T04:52:48.308Z,17.40
2022-11-01T04:55:15.068Z,17.40
2022-11-01T04:57:42.846Z,17.40
2022-11-01T05:00:11.769Z,17.50
2022-11-01T05:02:39.615Z,17.50
2022-11-01T05:05:08.405Z,17.50
2022-11-01T05:07:36.024Z,17.50
2022-11-01T05:10:03.822Z,17.50
2022-11-01T05:12:31.071Z,17.50
2022-11-01T05:14:57.914Z,17.50
2022-11-01T05:17:24.725Z,17.50
2022-11-01T05:19:51.455Z,17.60
2022-11-01T05:22:18.500Z,17.60
2022-11-01T05:24:45.265Z,17.60
2022-11-01T05:27:11.988Z,17.70
2022-11-01T05:29:38.839Z,17.70
2022-11-01T05:32:05.456Z,17.70
2022-11-01T05:34:32.582Z,17.80
2022-11-01T05:36:59.348Z,17.80
2022-11-01T05:39:25.984Z,17.80
2022-11-01T05:41:53.797Z,17.90
2022-11-01T05:44:22.509Z,17.90
2022-11-01T05:46:49.124Z,17.90
2022-11-01T05:49:15.711Z,17.90
2022-11-01T05:51:42.352Z,17.90
2022-11-01T05:54:09.253Z,17.90
2022-11-01T05:56:35.916Z,17.90
2022-11-01T05:59:02.596Z,17.90
2022-11-01T06:01:30.040Z,17.90
2022-11-01T06:04:01.664Z,17.90
2022-11-01T06:06:30.004Z,17.90
2022-11-01T06:08:57.673Z,17.90
2022-11-01T06:11:26.318Z,17.90
2022-11-01T06:13:57.996Z,17.90
2022-11-01T06:16:26.337Z,17.80
2022-11-01T06:18:54.441Z,17.90
2022-11-01T06:21:26.061Z,17.80
2022-11-01T06:23:56.083Z,17.80
2022-11-01T06:26:22.696Z,17.80
2022-11-01T06:28:49.986Z,17.90
2022-11-01T06:31:16.628Z,17.80
2022-11-01T06:33:43.511Z,17.90
2022-11-01T06:36:10.241Z,17.90
2022-11-01T06:38:37.040Z,17.90
2022-11-01T06:41:03.896Z,17.90
2022-11-01T06:43:30.545Z,17.90
2022-11-01T06:46:00.593Z,17.90
2022-11-01T06:48:28.145Z,17.90
2022-11-01T06:50:55.949Z,17.90
2022-11-01T06:53:25.699Z,17.90
2022-11-01T06:55:52.713Z,17.90
2022-11-01T06:58:19.786Z,17.90
2022-11-01T07:00:46.922Z,17.90
2022-11-01T07:03:14.654Z,17.90
2022-11-01T07:05:42.225Z,17.90
2022-11-01T07:08:13.572Z,18.00
2022-11-01T07:10:42.968Z,18.00
2022-11-01T07:13:11.896Z,18.00
2022-11-01T07:15:39.238Z,18.00
2022-11-01T07:18:08.217Z,18.00
2022-11-01T07:20:41.422Z,18.00
2022-11-01T07:23:14.342Z,18.10
2022-11-01T07:25:41.780Z,18.10
2022-11-01T07:28:09.467Z,18.10
2022-11-01T07:30:36.595Z,18.10
2022-11-01T07:33:05.457Z,18.10
2022-11-01T07:35:33.851Z,18.10
2022-11-01T07:38:03.848Z,18.10
2022-11-01T07:40:33.404Z,18.10
2022-11-01T07:43:01.030Z,18.10
2022-11-01T07:45:30.535Z,18.10
2022-11-01T07:48:05.309Z,18.10
2022-11-01T07:50:33.742Z,18.20
2022-11-01T07:53:05.436Z,18.10
2022-11-01T07:55:32.550Z,18.20
2022-11-01T07:57:59.660Z,18.20
2022-11-01T08:00:28.030Z,18.20
2022-11-01T08:03:25.316Z,18.20
2022-11-01T08:05:51.986Z,18.20
2022-11-01T08:08:19.918Z,18.30
2022-11-01T08:10:46.610Z,18.30
2022-11-01T08:13:24.461Z,18.30
2022-11-01T08:15:52.491Z,18.40
2022-11-01T08:18:24.540Z,18.40
2022-11-01T08:20:51.818Z,18.50
2022-11-01T08:23:18.634Z,18.50
2022-11-01T08:25:45.626Z,18.60
2022-11-01T08:28:15.393Z,18.70
2022-11-01T08:30:43.537Z,18.80
2022-11-01T08:33:10.652Z,18.80
2022-11-01T08:35:37.649Z,18.90
2022-11-01T08:38:04.471Z,18.90
2022-11-01T08:40:32.723Z,19.10
2022-11-01T08:42:59.711Z,19.10
2022-11-01T08:45:27.193Z,19.20
2022-11-01T08:48:03.544Z,19.40
2022-11-01T08:50:30.729Z,19.60
2022-11-01T08:52:57.424Z,19.90
2022-11-01T08:55:24.223Z,20.30
2022-11-01T08:57:50.939Z,20.90
2022-11-01T09:00:18.146Z,21.50
2022-11-01T09:02:45.164Z,22.30
2022-11-01T09:05:12.070Z,23.00
2022-11-01T09:07:39.487Z,23.60
2022-11-01T09:10:07.028Z,24.30
2022-11-01T09:12:33.834Z,24.80
2022-11-01T09:15:00.767Z,25.30
2022-11-01T09:17:27.859Z,25.60
2022-11-01T09:19:54.743Z,25.70
2022-11-01T09:22:21.450Z,25.70
2022-11-01T09:24:48.214Z,25.90
2022-11-01T09:27:16.223Z,26.10
2022-11-01T09:29:46.511Z,26.10
2022-11-01T09:32:16.504Z,26.10
2022-11-01T09:34:43.120Z,25.90
2022-11-01T09:37:09.787Z,25.60
2022-11-01T09:39:36.389Z,25.20
2022-11-01T09:42:07.803Z,24.90
2022-11-01T09:44:43.528Z,24.70
2022-11-01T09:47:15.130Z,24.60
2022-11-01T09:49:46.137Z,24.70
2022-11-01T09:52:20.976Z,25.10
2022-11-01T09:54:48.420Z,25.50
2022-11-01T09:57:21.293Z,25.90
2022-11-01T09:59:55.403Z,26.30
2022-11-01T10:02:40.956Z,26.80
2022-11-01T10:05:48.473Z,27.40
2022-11-01T10:08:42.502Z,27.90
2022-11-01T10:11:37.040Z,28.30
2022-11-01T10:14:21.221Z,28.80
2022-11-01T10:17:11.828Z,29.30
2022-11-01T10:19:42.565Z,29.90
2022-11-01T10:22:19.265Z,30.60
2022-11-01T10:24:55.531Z,31.20
2022-11-01T10:28:00.027Z,31.80
2022-11-01T10:30:30.654Z,32.40
2022-11-01T10:33:03.173Z,33.00
2022-11-01T10:35:51.917Z,33.50
2022-11-01T10:41:38.037Z,34.60
2022-11-01T10:44:11.513Z,35.00
2022-11-01T10:46:42.251Z,35.20
2022-11-01T10:49:24.574Z,35.40
2022-11-01T10:51:55.208Z,35.50
2022-11-01T10:54:28.504Z,35.50
2022-11-01T10:57:01.506Z,35.60
2022-11-01T10:59:43.648Z,35.60
2022-11-01T11:02:40.240Z,35.60
2022-11-01T11:05:07.226Z,35.50
2022-11-01T11:07:33.926Z,35.50
2022-11-01T11:12:35.772Z,35.50
2022-11-01T11:15:11.025Z,35.30
2022-11-01T11:17:42.509Z,35.10
2022-11-01T11:20:10.621Z,34.90
2022-11-01T11:22:40.123Z,34.90
2022-11-01T11:25:14.506Z,34.90
2022-11-01T11:27:47.495Z,34.90
2022-11-01T11:30:26.362Z,34.90
2022-11-01T11:32:53.939Z,34.90
2022-11-01T11:35:22.093Z,34.80
2022-11-01T11:37:54.668Z,34.70
2022-11-01T11:40:26.747Z,34.60
2022-11-01T11:43:16.318Z,34.50
2022-11-01T11:45:43.072Z,34.30
2022-11-01T11:48:21.750Z,34.20
2022-11-01T11:51:03.225Z,34.00
2022-11-01T11:53:32.211Z,33.80
2022-11-01T11:56:02.294Z,33.60
2022-11-01T11:58:35.186Z,33.40
2022-11-01T12:01:11.683Z,33.20
2022-11-01T12:04:04.743Z,33.00
2022-11-01T12:06:37.111Z,32.80
2022-11-01T12:09:03.912Z,32.70
2022-11-01T12:11:45.769Z,32.50
2022-11-01T12:14:22.716Z,32.50
2022-11-01T12:19:38.635Z,32.50
2022-11-01T12:22:05.569Z,32.50
2022-11-01T12:24:44.620Z,32.40
2022-11-01T12:27:17.789Z,32.30
2022-11-01T12:29:55.086Z,32.30
2022-11-01T12:32:29.907Z,32.30
2022-11-01T12:35:00.639Z,32.20
2022-11-01T12:37:53.179Z,32.20
2022-11-01T12:40:38.806Z,32.10
2022-11-01T12:43:30.338Z,31.90
2022-11-01T12:46:10.167Z,31.70
2022-11-01T12:48:43.111Z,31.70
2022-11-01T12:51:26.265Z,31.60
2022-11-01T12:54:02.359Z,31.50
2022-11-01T12:56:30.384Z,31.40
2022-11-01T12:58:57.804Z,31.30
2022-11-01T13:01:37.969Z,31.20
2022-11-01T13:04:32.314Z,31.00
2022-11-01T13:07:30.304Z,30.90
2022-11-01T13:10:22.133Z,30.80
2022-11-01T13:12:51.449Z,30.70
2022-11-01T13:15:42.705Z,30.60
2022-11-01T13:18:33.511Z,30.60
2022-11-01T13:21:11.837Z,30.40
2022-11-01T13:24:03.292Z,30.20
2022-11-01T13:26:46.830Z,30.10
2022-11-01T13:29:48.970Z,29.90
2022-11-01T13:32:27.830Z,29.80
2022-11-01T13:35:27.886Z,29.80
2022-11-01T13:37:57.763Z,29.80
2022-11-01T13:40:37.138Z,29.70
2022-11-01T13:43:07.847Z,29.60
2022-11-01T13:45:37.187Z,29.50
2022-11-01T13:48:21.352Z,29.50
2022-11-01T13:51:24.677Z,29.40
2022-11-01T13:54:01.584Z,29.40
2022-11-01T13:56:36.915Z,29.30
2022-11-01T13:59:14.360Z,29.20
2022-11-01T14:01:41.400Z,29.00
2022-11-01T14:04:17.336Z,28.90
2022-11-01T14:06:51.437Z,28.80
2022-11-01T14:09:25.834Z,28.70
2022-11-01T14:11:56.642Z,28.70
2022-11-01T14:14:29.669Z,28.60
2022-11-01T14:17:23.189Z,28.50
2022-11-01T14:20:11.984Z,28.40
2022-11-01T14:22:39.912Z,28.30
2022-11-01T14:25:12.735Z,28.20
2022-11-01T14:27:48.792Z,28.00
2022-11-01T14:30:31.850Z,27.90
2022-11-01T14:33:00.565Z,27.80
2022-11-01T14:35:37.921Z,27.80
2022-11-01T14:38:18.481Z,27.60
2022-11-01T14:40:54.206Z,27.50
2022-11-01T14:43:42.796Z,27.30
2022-11-01T14:46:22.664Z,27.20
2022-11-01T14:49:16.930Z,27.00
2022-11-01T14:51:45.883Z,26.70
2022-11-01T14:54:18.935Z,26.40
2022-11-01T14:56:52.030Z,26.00
2022-11-01T14:59:28.412Z,25.80
2022-11-01T15:02:02.645Z,25.60
2022-11-01T15:04:33.029Z,25.40
2022-11-01T15:07:00.558Z,25.30
2022-11-01T15:09:30.745Z,25.20
2022-11-01T15:12:06.870Z,25.10
2022-11-01T15:14:41.508Z,24.90
2022-11-01T15:17:24.456Z,24.70
2022-11-01T15:19:53.347Z,24.40
2022-11-01T15:22:25.983Z,24.20
2022-11-01T15:25:04.530Z,23.90
2022-11-01T15:27:41.893Z,23.50
2022-11-01T15:30:20.545Z,23.30
2022-11-01T15:32:51.460Z,23.00
2022-11-01T15:35:26.223Z,22.80
2022-11-01T15:37:54.366Z,22.50
2022-11-01T15:40:34.793Z,22.30
2022-11-01T15:43:03.257Z,22.00
2022-11-01T15:45:33.483Z,21.80
2022-11-01T15:48:06.777Z,21.60
2022-11-01T15:50:37.320Z,21.40
2022-11-01T15:53:09.919Z,21.30
2022-11-01T15:55:43.187Z,21.10
2022-11-01T15:58:18.677Z,20.90
2022-11-01T16:01:01.791Z,20.80
2022-11-01T16:03:51.090Z,20.60
2022-11-01T16:06:39.515Z,20.50
2022-11-01T16:09:40.159Z,20.30
2022-11-01T16:12:20.223Z,20.10
2022-11-01T16:15:02.174Z,20.00
2022-11-01T16:17:35.277Z,19.80
2022-11-01T16:20:06.451Z,19.70
2022-11-01T16:22:42.439Z,19.60
2022-11-01T16:25:11.926Z,19.50
2022-11-01T16:28:11.289Z,19.40
2022-11-01T16:30:53.913Z,19.30
2022-11-01T16:33:34.815Z,19.20
2022-11-01T16:36:32.441Z,19.00
2022-11-01T16:38:59.431Z,19.00
2022-11-01T16:41:28.752Z,18.90
2022-11-01T16:43:57.727Z,18.70
2022-11-01T16:46:26.638Z,18.60
2022-11-01T16:48:57.376Z,18.60
2022-11-01T16:51:28.369Z,18.50
2022-11-01T16:53:56.580Z,18.40
2022-11-01T16:56:36.740Z,18.30
2022-11-01T16:59:27.420Z,18.20
2022-11-01T17:01:58.076Z,18.10
2022-11-01T17:04:26.905Z,18.00
2022-11-01T17:06:55.307Z,17.90
2022-11-01T17:09:25.419Z,17.90
2022-11-01T17:11:53.901Z,17.80
2022-11-01T17:14:22.020Z,17.70
2022-11-01T17:16:51.044Z,17.60
2022-11-01T17:19:21.125Z,17.50
2022-11-01T17:21:50.645Z,17.40
2022-11-01T17:24:21.668Z,17.30
2022-11-01T17:26:50.022Z,17.30
2022-11-01T17:29:16.692Z,17.20
2022-11-01T17:31:43.529Z,17.10
2022-11-01T17:34:10.213Z,17.00
2022-11-01T17:36:39.563Z,17.00
2022-11-01T17:39:09.056Z,16.90
2022-11-01T17:41:36.842Z,16.80
2022-11-01T17:44:03.559Z,16.80
2022-11-01T17:46:30.272Z,16.70
2022-11-01T17:48:57.064Z,16.60
2022-11-01T17:51:23.718Z,16.60
2022-11-01T17:53:54.754Z,16.50
2022-11-01T17:56:22.692Z,16.40
2022-11-01T17:58:52.225Z,16.40
2022-11-01T18:01:20.860Z,16.30
2022-11-01T18:03:47.876Z,16.20
2022-11-01T18:06:14.763Z,16.20
2022-11-01T18:08:47.095Z,16.10
2022-11-01T18:11:23.223Z,16.00
2022-11-01T18:13:53.176Z,16.00
2022-11-01T18:16:22.840Z,15.90
2022-11-01T18:19:01.851Z,15.90
2022-11-01T18:21:40.795Z,15.80
2022-11-01T18:24:21.216Z,15.70
2022-11-01T18:26:49.198Z,15.70
2022-11-01T18:29:21.636Z,15.60
2022-11-01T18:32:03.499Z,15.60
2022-11-01T18:34:48.191Z,15.40
2022-11-01T18:37:18.986Z,15.40
2022-11-01T18:39:59.290Z,15.30
2022-11-01T18:42:26.475Z,15.20
2022-11-01T18:45:04.495Z,15.20
2022-11-01T18:47:34.706Z,15.10
2022-11-01T18:50:16.460Z,15.00
2022-11-01T18:52:43.459Z,14.90
2022-11-01T18:55:13.570Z,14.80
2022-11-01T18:57:40.701Z,14.80
2022-11-01T19:00:13.922Z,14.70
2022-11-01T19:02:41.109Z,14.70
2022-11-01T19:05:14.968Z,14.60
2022-11-01T19:08:09.192Z,14.50
2022-11-01T19:10:28.845Z,14.50
2022-11-01T19:12:56.368Z,14.40
2022-11-01T19:15:28.504Z,14.40
2022-11-01T19:18:00.820Z,14.30
2022-11-01T19:20:29.932Z,14.30
2022-11-01T19:23:03.801Z,14.20
2022-11-01T19:25:32.520Z,14.10
2022-11-01T19:28:04.276Z,14.10
2022-11-01T19:30:33.202Z,14.00
2022-11-01T19:33:20.357Z,13.90
2022-11-01T19:35:51.574Z,13.90
2022-11-01T19:38:19.751Z,13.80
2022-11-01T19:40:51.897Z,13.80
2022-11-01T19:43:24.837Z,13.70
2022-11-01T19:45:53.684Z,13.70
2022-11-01T19:48:29.930Z,13.60
2022-11-01T19:50:57.189Z,13.50
2022-11-01T19:53:37.973Z,13.50
2022-11-01T19:56:06.266Z,13.40
2022-11-01T19:58:50.305Z,13.40
2022-11-01T20:01:17.772Z,13.30
2022-11-01T20:03:48.301Z,13.30
2022-11-01T20:06:31.136Z,13.20
2022-11-01T20:09:04.227Z,13.20
2022-11-01T20:11:35.036Z,13.20
2022-11-01T20:14:02.175Z,13.10
2022-11-01T20:16:29.109Z,13.10
2022-11-01T20:18:56.272Z,13.00
2022-11-01T20:21:23.222Z,13.00
2022-11-01T20:23:50.275Z,12.90
2022-11-01T20:26:17.291Z,12.90
2022-11-01T20:28:44.557Z,12.90
2022-11-01T20:31:11.488Z,12.80
2022-11-01T20:33:38.262Z,12.80
2022-11-01T20:36:10.784Z,12.80
2022-11-01T20:38:39.008Z,12.80
2022-11-01T20:41:06.068Z,12.80
2022-11-01T20:43:32.921Z,12.80
2022-11-01T20:45:59.930Z,12.70
2022-11-01T20:48:26.899Z,12.70
2022-11-01T20:50:53.903Z,12.70
2022-11-01T20:53:22.833Z,12.70
2022-11-01T20:55:51.452Z,12.70
2022-11-01T20:58:18.369Z,12.70
2022-11-01T21:00:45.292Z,12.70
2022-11-01T21:03:18.326Z,12.60
2022-11-01T21:05:46.876Z,12.70
2022-11-01T21:08:25.725Z,12.70
2022-11-01T21:10:59.341Z,12.70
2022-11-01T21:13:30.657Z,12.70
2022-11-01T21:15:59.430Z,12.70
2022-11-01T21:18:39.510Z,12.70
2022-11-01T21:21:27.377Z,12.60
2022-11-01T21:23:55.012Z,12.60
2022-11-01T21:26:24.050Z,12.60
2022-11-01T21:28:53.499Z,12.50
2022-11-01T21:31:29.503Z,12.50
2022-11-01T21:34:00.081Z,12.40
2022-11-01T21:36:34.043Z,12.40
2022-11-01T21:39:13.983Z,12.40
2022-11-01T21:42:25.106Z,12.40
2022-11-01T21:44:51.990Z,12.40
2022-11-01T21:47:24.588Z,12.50
2022-11-01T21:49:51.711Z,12.40
2022-11-01T21:52:21.530Z,12.50
2022-11-01T21:54:48.848Z,12.50
2022-11-01T21:57:16.452Z,12.60
2022-11-01T21:59:43.781Z,12.60
2022-11-01T22:02:12.470Z,12.60
2022-11-01T22:04:39.873Z,12.70
2022-11-01T22:07:08.563Z,12.70
2022-11-01T22:09:35.898Z,12.80
2022-11-01T22:12:02.992Z,12.80
2022-11-01T22:14:29.689Z,13.00
2022-11-01T22:16:57.132Z,13.00
2022-11-01T22:19:23.950Z,13.00
2022-11-01T22:21:50.819Z,13.10
2022-11-01T22:24:17.524Z,13.20
2022-11-01T22:26:44.170Z,13.20
2022-11-01T22:29:11.261Z,13.30
2022-11-01T22:31:37.897Z,13.30
2022-11-01T22:34:04.683Z,13.40
2022-11-01T22:36:37.463Z,13.40
2022-11-01T22:39:16.554Z,13.50
2022-11-01T22:41:43.571Z,13.50
2022-11-01T22:44:17.643Z,13.60
2022-11-01T22:46:55.211Z,13.60
2022-11-01T22:49:45.580Z,13.60
2022-11-01T22:52:22.534Z,13.60
2022-11-01T22:54:54.911Z,13.70
2022-11-01T22:57:26.758Z,13.70
2022-11-01T23:00:00.120Z,13.70
2022-11-01T23:02:30.463Z,13.80
2022-11-01T23:05:06.271Z,13.80
2022-11-01T23:07:38.167Z,13.90
2022-11-01T23:10:19.963Z,13.80
2022-11-01T23:13:05.421Z,13.90
2022-11-01T23:15:34.015Z,13.90
2022-11-01T23:18:22.271Z,14.00
2022-11-01T23:20:57.698Z,13.90
2022-11-01T23:23:24.542Z,14.00
2022-11-01T23:25:52.646Z,14.00
2022-11-01T23:28:19.330Z,14.00
2022-11-01T23:30:47.998Z,14.10
2022-11-01T23:33:16.887Z,14.00
2022-11-01T23:35:55.203Z,14.10
2022-11-01T23:38:35.407Z,14.10
2022-11-01T23:41:03.022Z,14.10
2022-11-01T23:43:40.900Z,14.10
2022-11-01T23:46:09.880Z,14.10
2022-11-01T23:48:41.605Z,14.20
2022-11-01T23:51:18.981Z,14.20
2022-11-01T23:53:48.547Z,14.20
2022-11-01T23:56:19.042Z,14.20
2022-11-01T23:59:06.095Z,14.20
